Latest Weather Observations for Wilsons Promontory

IDV60801

Issued at 7:52 pm EDT Monday 2 October 2023 (issued every 10 minutes, with the page automatically refreshed every 10 minutes)

About weather observations | Map of weather stations | Latest weather observations for VIC | Other Formats
Station Details ID: 085096 Name: WILSONS PROMONTORY LIGHTHOUSE Lat: -39.13 Lon: 146.42 Height: 95.0 m
Data from the previous 72 hours. | See also: Recent months at Wilsons Promontory
Date/Time
EDT
Temp
°C
App
Temp
°C
Dew
Point
°C
Rel
Hum
%
Delta-T
°C
Wind Press
QNH
hPa
Press
MSL
hPa
Rain since
9am
mm
Dir  Spd
km/h
Gust
km/h
Spd
kts
Gust
kts
02/07:39pm 15.0 9.1 9.1 68 3.0 NNE 30 48 16 26 1007.7 1007.7 0.0
02/07:30pm 15.0 8.7 9.1 68 3.0 NNE 32 44 17 24 1007.7 1007.7 0.0
02/07:00pm 13.8 8.1 11.0 83 1.5 NNE 32 44 17 24 1008.0 1008.0 0.0
02/06:30pm 13.6 7.9 11.0 84 1.4 NNE 32 41 17 22 1008.5 1008.5 0.0
02/06:00pm 13.6 7.7 11.0 84 1.4 NNE 33 43 18 23 1008.9 1008.9 0.0
02/05:30pm 13.8 7.4 10.8 82 1.6 NNE 35 43 19 23 1009.6 1009.6 0.0
02/05:00pm 14.2 9.2 10.8 80 1.8 NNE 28 35 15 19 1010.5 1010.5 0.0
02/04:30pm 14.1 7.6 10.5 79 1.9 NNE 35 43 19 23 1011.1 1011.1 0.0
02/04:00pm 14.2 7.7 10.2 77 2.1 NNE 35 44 19 24 1011.8 1011.8 0.0
02/03:30pm 14.3 8.4 10.3 77 2.1 NE 32 43 17 23 1012.3 1012.3 0.0
02/03:00pm 14.3 7.8 10.3 77 2.1 NE 35 43 19 23 1012.8 1012.8 0.0
02/02:30pm 14.4 7.9 10.2 76 2.2 NE 35 44 19 24 1013.6 1013.6 0.0
02/02:00pm 14.4 7.7 9.8 74 2.4 NE 35 44 19 24 1014.1 1014.1 0.0
02/01:30pm 14.4 7.7 9.6 73 2.5 NE 35 44 19 24 1014.5 1014.5 0.0
02/01:00pm 14.0 6.9 9.6 75 2.3 NE 37 44 20 24 1015.1 1015.1 0.0
02/12:30pm 14.2 7.5 9.6 74 2.4 NE 35 44 19 24 1015.8 1015.8 0.0
02/12:00pm 14.6 7.9 9.6 72 2.6 NE 35 48 19 26 1016.2 1016.2 0.0
02/11:30am 14.1 7.7 9.3 73 2.5 NE 33 44 18 24 1016.1 1016.1 0.0
02/11:00am 13.9 5.9 9.1 73 2.4 NE 41 52 22 28 1015.5 1015.6 0.0
02/10:30am 13.9 7.1 9.1 73 2.4 NE 35 48 19 26 1016.7 1016.7 0.0
02/10:00am 13.4 5.9 9.3 76 2.1 NE 39 54 21 29 1016.9 1016.9 0.0
02/09:30am 13.2 6.4 9.1 76 2.1 NE 35 44 19 24 1017.6 1017.6 0.0
02/09:00am 12.9 6.7 9.2 78 1.9 NE 32 44 17 24 1017.5 1017.5 0.0
02/08:30am 12.8 6.5 8.9 77 2.0 NNE 32 43 17 23 1017.8 1017.8 0.0
02/08:00am 12.4 6.2 7.9 74 2.2 NNE 30 44 16 24 1018.0 1018.0 0.0
02/07:30am 11.8 5.0 7.9 77 1.9 NE 33 43 18 23 1017.1 1017.1 0.0
02/07:00am 11.5 6.1 8.2 80 1.6 NE 26 37 14 20 1017.1 1017.1 0.0
02/06:30am 11.4 7.8 8.4 82 1.5 NNE 17 26 9 14 1017.4 1017.4 0.0
02/06:00am 11.2 8.3 8.1 81 1.5 NNE 13 20 7 11 1017.5 1017.5 0.0
02/05:30am 11.0 7.1 7.3 78 1.8 NNE 17 24 9 13 1017.2 1017.2 0.0
02/05:00am 10.7 7.2 7.0 78 1.8 NNE 15 20 8 11 1017.3 1017.3 0.0
02/04:30am 10.9 7.8 7.2 78 1.8 NNE 13 17 7 9 1017.4 1017.4 0.0
02/04:00am 11.0 8.6 7.1 77 1.9 N 9 13 5 7 1017.8 1017.8 0.0
02/03:30am 11.5 9.6 7.6 77 1.9 SE 7 9 4 5 1017.8 1017.8 0.0
02/03:00am 11.2 9.2 7.1 76 2.0 W 7 11 4 6 1018.1 1018.1 0.0
02/02:30am 11.7 8.2 7.4 75 2.1 W 15 20 8 11 1018.1 1018.1 0.0
02/02:00am 12.1 9.1 7.6 74 2.2 SW 13 24 7 13 1018.3 1018.3 0.0
02/01:30am 12.2 7.1 7.7 74 2.2 SW 24 32 13 17 1018.0 1018.0 0.0
02/01:00am 12.4 5.9 8.1 75 2.1 SW 32 35 17 19 1017.8 1017.8 0.0
02/12:30am 12.4 4.9 8.1 75 2.1 SW 37 43 20 23 1017.8 1017.8 0.0
02/12:00am 12.6 5.5 8.1 74 2.2 WSW 35 41 19 22 1017.6 1017.6 0.0
 
Date/Time
EDT
Temp
°C
App
Temp
°C
Dew
Point
°C
Rel
Hum
%
Delta-T
°C
Wind Press
QNH
hPa
Press
MSL
hPa
Rain since
9am
mm
Dir  Spd
km/h
Gust
km/h
Spd
kts
Gust
kts
01/11:30pm 12.6 4.4 8.3 75 2.1 WSW 41 46 22 25 1017.3 1017.3 0.0
01/11:00pm 12.6 6.3 7.3 70 2.6 W 30 41 16 22 1017.0 1017.0 0.0
01/10:30pm 12.7 5.1 7.4 70 2.6 W 37 48 20 26 1016.6 1016.6 0.0
01/10:00pm 12.7 5.2 7.8 72 2.4 W 37 48 20 26 1016.3 1016.3 0.0
01/09:30pm 12.8 6.7 8.1 73 2.3 W 30 44 16 24 1016.3 1016.3 0.0
01/09:00pm 12.9 5.4 7.8 71 2.5 WSW 37 56 20 30 1015.8 1015.8 0.0
01/08:59pm 12.9 5.4 7.8 71 2.5 WSW 37 56 20 30 1015.8 1015.8 0.0
01/08:30pm 12.9 4.7 8.0 72 2.4 WSW 41 52 22 28 1015.2 1015.2 0.0
01/08:00pm 13.0 4.5 8.5 74 2.3 WSW 43 56 23 30 1014.2 1014.2 0.0
01/07:30pm 13.0 3.4 8.1 72 2.4 W 48 59 26 32 1013.8 1013.8 0.0
01/07:04pm 13.3 5.6 8.8 74 2.3 W 39 57 21 31 1013.1 1013.1 0.0
01/07:00pm 13.4 4.8 8.3 71 2.6 W 43 59 23 32 1013.2 1013.2 0.0
01/06:40pm 13.4 4.0 8.7 73 2.4 W 48 67 26 36 1012.9 1012.9 0.0
01/06:30pm 13.5 3.1 7.7 68 2.9 W 52 67 28 36 1012.4 1012.4 0.0
01/06:02pm 13.8 4.4 8.6 71 2.6 W 48 69 26 37 1011.7 1011.7 0.0
01/06:00pm 13.9 4.5 8.9 72 2.5 W 48 63 26 34 1011.7 1011.7 0.0
01/05:30pm 14.0 5.6 9.0 72 2.5 W 43 69 23 37 1011.5 1011.5 0.0
01/05:00pm 14.3 5.8 9.1 71 2.7 W 44 70 24 38 1010.8 1010.8 0.0
01/04:57pm 14.3 6.0 9.3 72 2.6 W 43 69 23 37 1010.9 1010.9 0.0
01/04:56pm 14.3 6.0 9.5 73 2.5 W 43 69 23 37 1011.1 1011.1 0.0
01/04:34pm 14.0 3.1 9.0 72 2.5 W 56 95 30 51 1009.8 1009.8 0.0
01/04:30pm 13.9 3.0 8.7 71 2.6 W 56 76 30 41 1009.7 1009.7 0.0
01/04:00pm 14.5 2.9 8.2 66 3.2 W 59 85 32 46 1009.3 1009.3 0.0
01/03:30pm 14.3 2.8 8.5 68 2.9 W 59 89 32 48 1009.3 1009.3 0.0
01/03:00pm 14.5 3.5 9.1 70 2.8 W 57 82 31 44 1009.2 1009.2 0.0
01/02:40pm 14.4 1.7 8.4 67 3.0 W 65 91 35 49 1008.4 1008.4 0.0
01/02:39pm 14.6 1.9 8.3 66 3.2 W 65 91 35 49 1008.3 1008.3 0.0
01/02:30pm 14.5 3.5 8.5 67 3.0 W 56 91 30 49 1008.6 1008.6 0.0
01/02:00pm 14.2 3.0 8.4 68 2.9 W 57 89 31 48 1008.2 1008.2 0.0
01/01:30pm 14.5 2.8 8.0 65 3.3 W 59 96 32 52 1008.5 1008.5 0.0
01/01:29pm 14.5 2.4 7.8 64 3.3 W 61 96 33 52 1008.4 1008.4 0.0
01/01:00pm 14.7 1.5 8.0 64 3.4 W 67 89 36 48 1007.4 1007.4 0.0
01/12:30pm 15.0 2.8 8.9 67 3.1 W 63 87 34 47 1007.0 1007.0 0.0
01/12:00pm 15.0 2.7 8.5 65 3.3 W 63 91 34 49 1007.0 1007.0 0.0
01/11:30am 15.3 3.0 8.5 64 3.5 W 63 91 34 49 1006.0 1005.9 0.0
01/11:00am 15.0 2.6 9.8 71 2.7 W 65 87 35 47 1005.5 1005.4 0.0
01/10:30am 15.0 3.7 10.8 76 2.2 W 61 89 33 48 1004.4 1004.5 0.0
01/10:00am 14.8 3.9 12.1 84 1.5 W 61 89 33 48 1003.5 1003.6 0.0
01/09:30am 15.6 3.9 12.2 80 1.9 W 65 91 35 49 1002.6 1002.7 0.0
01/09:00am 17.5 4.9 11.5 68 3.3 W 69 100 37 54 1001.1 1001.1 0.0
01/08:49am 18.6 6.0 10.2 58 4.5 W 67 91 36 49 1001.3 1001.3 0.0
01/08:34am 21.9 11.0 5.3 34 8.3 W 52 98 28 53 999.2 999.2 0.0
01/08:30am 23.4 12.3 2.3 25 10.1 W 50 100 27 54 999.7 999.7 0.0
01/08:24am 23.8 13.4 2.0 24 10.4 WNW 46 100 25 54 999.1 999.1 0.0
01/08:18am 24.2 15.0 1.2 22 10.8 WNW 39 89 21 48 999.0 999.0 0.0
01/08:07am 24.6 17.4 0.8 21 11.1 WNW 28 70 15 38 999.0 999.0 0.0
01/08:00am 25.8 19.7 0.5 19 11.9 WNW 22 61 12 33 999.0 999.0 0.0
01/07:33am 26.9 18.3 -2.8 14 13.2 NW 33 76 18 41 997.7 997.7 0.0
01/07:30am 27.0 16.7 -3.7 13 13.5 NNW 41 104 22 56 997.7 997.7 0.0
01/07:27am 27.0 17.5 -3.7 13 13.5 NNW 37 104 20 56 997.6 997.6 0.0
01/07:23am 27.1 18.4 -3.7 13 13.5 NNW 33 104 18 56 997.3 997.3 0.0
01/07:22am 26.9 18.7 -3.8 13 13.4 NNW 30 74 16 40 997.4 997.4 0.0
01/07:21am 26.9 19.1 -3.8 13 13.4 NNW 28 67 15 36 997.8 - 0.0
01/07:16am 26.9 19.2 -2.8 14 13.2 NNW 28 52 15 28 998.0 998.0 0.0
01/07:06am 26.6 18.1 -2.1 15 12.9 NNW 33 95 18 51 998.2 998.2 0.0
01/07:04am 26.6 17.8 -1.3 16 12.7 NNW 35 95 19 51 997.5 997.5 0.0
01/07:03am 26.6 18.2 -2.1 15 12.9 NNW 32 82 17 44 998.1 998.1 0.0
01/07:02am 26.5 19.0 -1.3 16 12.7 NNW 28 50 15 27 998.3 998.3 0.0
01/07:00am 26.4 19.3 -1.4 16 12.7 NNW 26 50 14 27 998.2 998.2 0.0
01/06:30am 26.3 17.5 -1.5 16 12.6 NNW 35 76 19 41 998.1 998.1 0.0
01/06:13am 26.5 17.3 -1.3 16 12.7 NNW 37 91 20 49 998.4 998.4 0.0
01/06:00am 26.5 17.7 -1.3 16 12.8 NNW 35 70 19 38 999.0 999.0 0.0
01/05:30am 26.7 16.3 -0.3 17 12.6 NNW 44 80 24 43 999.0 999.0 0.0
01/05:00am 26.8 18.6 -1.1 16 12.9 N 32 67 17 36 999.3 999.3 0.0
01/04:49am 26.7 18.5 -1.2 16 12.8 N 32 69 17 37 999.4 999.4 0.0
01/04:30am 26.9 19.1 -1.0 16 12.8 N 30 48 16 26 999.9 999.9 0.0
01/04:00am 26.8 19.0 -1.1 16 12.9 N 30 50 16 27 1000.5 1000.5 0.0
01/03:30am 26.1 18.8 0.0 18 12.2 N 28 57 15 31 1001.3 1001.3 0.0
01/03:19am 25.7 18.3 -0.4 18 12.0 N 28 46 15 25 1001.4 1001.4 0.0
01/03:00am 23.5 17.1 1.2 23 10.5 N 24 46 13 25 1002.0 1002.0 0.0
01/01:30am 21.9 15.9 3.6 30 8.8 NNE 24 43 13 23 1003.1 1003.2 0.0
01/01:00am 21.8 16.2 3.5 30 8.9 NNE 22 30 12 16 1004.0 1004.1 0.0
01/12:30am 22.3 16.1 1.9 26 9.6 NNE 24 32 13 17 1004.8 1004.9 0.0
01/12:00am 23.0 16.3 1.4 24 10.1 NNE 26 33 14 18 1005.6 1005.6 0.0
 
Date/Time
EDT
Temp
°C
App
Temp
°C
Dew
Point
°C
Rel
Hum
%
Delta-T
°C
Wind Press
QNH
hPa
Press
MSL
hPa
Rain since
9am
mm
Dir  Spd
km/h
Gust
km/h
Spd
kts
Gust
kts
30/11:30pm 23.0 16.9 2.5 26 9.8 NNE 24 32 13 17 1006.5 1006.5 0.0
30/11:00pm 23.2 16.6 2.1 25 10.0 NNE 26 35 14 19 1007.1 1007.1 0.0
30/10:30pm 23.2 17.4 2.1 25 10.0 NNE 22 32 12 17 1007.9 1007.9 0.0
30/10:00pm 23.6 18.2 2.4 25 10.2 N 20 30 11 16 1008.6 1008.6 0.0
30/09:30pm 23.2 17.6 3.2 27 9.7 N 22 30 12 16 1009.0 1009.0 0.0
30/09:00pm 24.4 18.5 1.9 23 10.7 N 22 33 12 18 1009.3 1009.3 0.0
30/08:30pm 24.8 18.1 1.7 22 11.0 N 26 46 14 25 1009.6 1009.6 0.0
30/08:05pm 24.8 17.9 2.3 23 10.8 N 28 46 15 25 1009.9 1009.9 0.0
30/08:00pm 24.6 18.4 2.1 23 10.8 N 24 43 13 23 1010.0 1010.0 0.0
30/07:30pm 24.4 18.7 3.1 25 10.4 NNW 22 35 12 19 1010.3 1010.3 0.0
30/07:00pm 24.7 18.8 3.9 26 10.3 N 24 46 13 25 1010.2 1010.2 0.0
30/06:30pm 24.7 19.4 5.0 28 10.0 NNW 22 35 12 19 1010.1 1010.1 0.0
30/06:00pm 24.9 20.2 5.2 28 10.0 NNW 19 32 10 17 1010.2 1010.2 0.0
30/05:30pm 25.1 20.5 5.8 29 9.9 NNW 19 33 10 18 1010.0 1010.0 0.0
30/05:00pm 25.0 21.7 6.2 30 9.7 NNW 13 20 7 11 1010.2 1010.2 0.0
30/04:30pm 25.9 21.1 4.9 26 10.7 W 19 39 10 21 1010.2 1010.2 0.0
30/04:00pm 26.3 20.3 3.5 23 11.4 W 24 48 13 26 1010.2 1010.2 0.0
30/03:35pm 26.3 19.7 4.1 24 11.2 W 28 56 15 30 1010.6 1010.6 0.0
30/03:30pm 26.1 19.8 4.0 24 11.1 W 26 46 14 25 1010.7 1010.7 0.0
30/03:00pm 26.2 19.3 4.6 25 11.0 W 30 50 16 27 1011.2 1011.3 0.0
30/02:30pm 26.2 18.3 4.6 25 10.9 W 35 59 19 32 1011.5 1011.6 0.0
30/02:00pm 25.9 18.0 4.4 25 10.8 WNW 35 65 19 35 1011.7 1011.8 0.0
30/01:30pm 25.9 19.4 4.9 26 10.7 WNW 28 56 15 30 1012.4 1012.5 0.0
30/01:00pm 25.4 18.8 4.0 25 10.7 W 28 54 15 29 1012.7 1012.8 0.0
30/12:30pm 24.8 16.8 4.0 26 10.3 WNW 35 63 19 34 1012.9 1013.0 0.0
30/12:00pm 24.2 15.8 3.5 26 10.2 WNW 37 76 20 41 1012.6 1012.7 0.0
30/11:30am 23.8 12.2 1.4 23 10.5 WNW 52 85 28 46 1013.1 1013.2 0.0
30/11:00am 23.2 12.4 2.1 25 10.0 WNW 48 76 26 41 1013.2 1013.3 0.0
30/10:30am 22.7 11.7 2.8 27 9.5 WNW 50 85 27 46 1014.0 1014.1 0.0
30/10:00am 21.6 10.5 2.3 28 9.1 WNW 50 85 27 46 1014.7 1014.8 0.0
30/09:42am 21.6 12.9 2.3 28 9.1 WNW 37 80 20 43 1014.9 1015.0 0.0
30/09:35am 21.3 14.3 2.1 28 9.0 WNW 28 54 15 29 1015.2 - 0.0
30/09:34am 21.3 14.3 2.1 28 9.0 WNW 28 54 15 29 1015.1 1015.2 0.0
30/09:30am 21.3 14.7 2.1 28 9.0 WNW 26 52 14 28 1015.1 1015.2 0.0
30/09:04am 21.0 14.0 1.8 28 8.9 WNW 28 57 15 31 1015.5 - 0.0
30/09:02am 21.0 14.4 1.8 28 8.9 WNW 26 57 14 31 1015.5 1015.6 0.0
30/09:00am 20.8 14.5 1.6 28 8.8 WNW 24 52 13 28 1015.6 1015.7 -
30/08:53am 20.9 14.6 1.7 28 8.9 WNW 24 54 13 29 1015.3 1015.4 -
30/08:30am 20.9 15.6 1.7 28 8.9 NW 19 46 10 25 1015.4 1015.5 0.0
30/08:03am 21.0 15.1 1.8 28 8.9 NNW 22 48 12 26 1015.4 1015.5 0.0
30/08:00am 20.9 15.3 1.2 27 9.0 NW 20 41 11 22 1015.3 1015.4 0.0
30/07:40am 20.8 15.0 2.1 29 8.7 NNW 22 63 12 34 1015.2 1015.3 0.0
30/07:32am 20.7 13.0 2.5 30 8.5 NW 32 54 17 29 1015.2 1015.3 0.0
30/07:30am 20.7 13.0 2.5 30 8.5 NW 32 54 17 29 1015.1 1015.2 0.0
30/07:00am 20.3 13.3 2.2 30 8.4 NNW 28 59 15 32 1014.9 1015.0 0.0
30/06:57am 20.3 13.3 2.2 30 8.4 NNW 28 59 15 32 1014.8 1014.9 0.0
30/06:30am 20.1 13.6 2.5 31 8.2 NNW 26 46 14 25 1014.9 1015.0 0.0
30/06:01am 19.9 13.0 2.7 32 8.0 NW 28 61 15 33 1015.0 1015.1 0.0
30/06:00am 19.9 13.4 2.7 32 8.0 NW 26 61 14 33 1015.0 1015.1 0.0
30/05:37am 19.7 12.8 2.6 32 8.0 NW 28 54 15 29 1014.9 1015.0 0.0
30/05:30am 19.8 13.7 2.6 32 8.0 NW 24 50 13 27 1015.1 1015.2 0.0
30/05:20am 20.1 13.2 2.5 31 8.2 NW 28 69 15 37 1015.1 - 0.0
30/05:14am 20.0 14.6 2.4 31 8.2 NNW 20 56 11 30 1014.9 1015.0 0.0
30/05:00am 20.0 13.9 2.8 32 8.1 NNW 24 46 13 25 1015.0 1015.1 0.0
30/04:45am 20.3 14.6 3.1 32 8.1 NW 22 54 12 29 1014.9 1015.0 0.0
30/04:30am 20.2 15.2 3.4 33 8.0 NW 19 37 10 20 1015.1 1015.2 0.0
30/04:00am 20.4 14.4 3.2 32 8.2 NNW 24 46 13 25 1015.0 1015.1 0.0
30/03:30am 20.2 13.5 3.4 33 8.0 NNW 28 50 15 27 1015.3 1015.4 0.0
30/03:00am 20.3 13.6 3.5 33 8.0 NNW 28 48 15 26 1015.4 1015.5 0.0
30/02:34am 20.3 13.5 3.1 32 8.1 NNW 28 48 15 26 1016.0 - 0.0
30/02:33am 20.3 13.5 3.1 32 8.1 NNW 28 48 15 26 1016.1 1016.1 0.0
30/02:30am 20.3 13.9 3.1 32 8.1 NNW 26 46 14 25 1016.2 1016.2 0.0
30/02:27am 20.2 13.4 3.0 32 8.1 NNW 28 50 15 27 1016.1 - 0.0
30/02:20am 20.2 13.8 3.0 32 8.1 NNW 26 50 14 27 1016.3 1016.3 0.0
30/02:00am 20.0 16.1 3.3 33 7.9 NW 13 26 7 14 1016.8 1016.8 0.0
30/01:30am 19.4 16.5 4.4 37 7.2 N 9 19 5 10 1017.5 1017.5 0.0
30/01:00am 19.4 16.9 4.7 38 7.1 NNW 7 19 4 10 1018.1 1018.1 0.0
30/12:30am 20.1 15.3 5.4 38 7.3 N 20 39 11 21 1018.5 1018.5 0.0
30/12:00am 20.3 17.1 5.1 37 7.5 NNW 11 24 6 13 1018.7 1018.7 0.0
 
Date/Time
EDT
Temp
°C
App
Temp
°C
Dew
Point
°C
Rel
Hum
%
Delta-T
°C
Wind Press
QNH
hPa
Press
MSL
hPa
Rain since
9am
mm
Dir  Spd
km/h
Gust
km/h
Spd
kts
Gust
kts
29/11:30pm 20.4 15.1 5.2 37 7.5 NNW 22 37 12 20 1018.8 1018.8 0.0
29/11:00pm 19.7 13.5 4.2 36 7.4 NW 26 35 14 19 1019.2 1019.2 0.0
29/10:30pm 19.6 14.4 3.7 35 7.6 NW 20 32 11 17 1019.5 1019.5 0.0
29/10:00pm 19.8 13.2 4.3 36 7.5 NW 28 35 15 19 1019.7 1019.8 0.0
29/09:30pm 20.2 13.6 4.3 35 7.7 WNW 28 43 15 23 1020.0 1020.1 0.0
29/09:00pm 19.9 12.4 3.2 33 7.9 WNW 32 46 17 25 1019.9 1020.0 0.0
29/08:30pm 19.2 13.7 2.1 32 7.9 WNW 20 37 11 20 1020.2 1020.3 0.0
29/08:00pm 18.3 12.4 -0.5 28 8.1 W 20 30 11 16 1020.1 1020.2 0.0
29/07:30pm 18.4 10.9 -1.4 26 8.4 WNW 28 41 15 22 1020.0 1020.1 0.0
29/07:00pm 17.6 10.5 -4.3 22 8.7 WNW 24 35 13 19 1020.1 1020.2 0.0

Other formats

Comma delimited format used in spreadsheet applications
http://www.bom.gov.au/fwo/IDV60801/IDV60801.94893.axf

JavaScript Object Notation format (JSON) in row-major order
http://www.bom.gov.au/fwo/IDV60801/IDV60801.94893.json

Data quality

Most of these data are generated automatically and are frequently updated. Quality checks on data are not normally performed. It is possible for incorrect values to appear. Refer to information at About Latest Weather Observations and please check the disclaimer before using these data.